Time;durP1;ratioP1;P1;durP2;ratioP2;P2;SDS_P1;SDS_P2;PMS_P1;PMS_P2;Temp;Humidity;BMP_temperature;BMP_pressure;BME280_temperature;BME280_humidity;BME280_pressure;Samples;Min_cycle;Max_cycle;Signal;HPM_P1;HPM_P2
2022/10/21 00:01:58;;;;;;;23.60;16.10;;;;;;;;;;4453898;32;20268;-86
2022/10/21 00:04:31;;;;;;;27.63;16.97;;;;;;;;;;4453361;32;20744;-86
2022/10/21 00:06:58;;;;;;;26.87;15.53;;;;;;;;;;4453469;32;20296;-86
2022/10/21 00:09:25;;;;;;;22.00;16.53;;;;;;;;;;4453919;32;20306;-86
2022/10/21 00:11:51;;;;;;;24.93;16.27;;;;;;;;;;4453827;32;20221;-86
2022/10/21 00:14:18;;;;;;;25.53;16.13;;;;;;;;;;4453064;32;20300;-86
2022/10/21 00:16:45;;;;;;;27.33;15.70;;;;;;;;;;4453692;32;20330;-88
2022/10/21 00:19:12;;;;;;;18.70;13.43;;;;;;;;;;4453293;32;20656;-87
2022/10/21 00:21:41;;;;;;;23.63;13.03;;;;;;;;;;4453719;32;20257;-86
2022/10/21 00:24:08;;;;;;;23.63;15.17;;;;;;;;;;4453601;32;20225;-87
2022/10/21 00:26:34;;;;;;;21.33;14.17;;;;;;;;;;4453597;32;20402;-86
2022/10/21 00:29:01;;;;;;;23.30;13.80;;;;;;;;;;4453144;32;20246;-86
2022/10/21 00:31:29;;;;;;;28.70;15.10;;;;;;;;;;4453434;32;20231;-85
2022/10/21 00:33:56;;;;;;;21.03;12.87;;;;;;;;;;4452686;32;20247;-85
2022/10/21 00:36:22;;;;;;;18.80;12.67;;;;;;;;;;4453505;32;20217;-85
2022/10/21 00:38:53;;;;;;;24.83;13.93;;;;;;;;;;4453334;32;20228;-85
2022/10/21 00:41:20;;;;;;;21.03;12.80;;;;;;;;;;4453547;32;20212;-85
2022/10/21 00:43:59;;;;;;;20.43;13.80;;;;;;;;;;4452975;32;20229;-85
2022/10/21 00:46:34;;;;;;;27.57;14.70;;;;;;;;;;4452874;32;20204;-85
2022/10/21 00:49:06;;;;;;;19.77;12.70;;;;;;;;;;4452979;32;20583;-85
2022/10/21 00:51:33;;;;;;;16.40;11.43;;;;;;;;;;4453411;32;20212;-85
2022/10/21 00:54:02;;;;;;;18.50;12.77;;;;;;;;;;4452711;32;20232;-85
2022/10/21 00:56:30;;;;;;;14.47;10.47;;;;;;;;;;4452804;32;20204;-85
2022/10/21 00:58:59;;;;;;;15.60;11.33;;;;;;;;;;4453216;32;20224;-85
2022/10/21 01:01:26;;;;;;;20.20;10.97;;;;;;;;;;4453280;32;20573;-85
2022/10/21 01:03:53;;;;;;;13.70;10.50;;;;;;;;;;4452771;32;20242;-85
2022/10/21 01:06:24;;;;;;;17.30;11.10;;;;;;;;;;4453186;32;20212;-85
2022/10/21 01:08:53;;;;;;;14.57;10.80;;;;;;;;;;4452855;32;20221;-85
2022/10/21 01:11:23;;;;;;;23.50;11.37;;;;;;;;;;4453154;32;20224;-85
2022/10/21 01:14:01;;;;;;;16.20;9.90;;;;;;;;;;4452596;32;20308;-85
2022/10/21 01:16:36;;;;;;;16.47;10.90;;;;;;;;;;4453196;32;20272;-85
2022/10/21 01:19:20;;;;;;;14.20;8.83;;;;;;;;;;4452653;32;20284;-85
2022/10/21 01:21:53;;;;;;;20.03;10.63;;;;;;;;;;4453148;32;20208;-85
2022/10/21 01:24:49;;;;;;;19.23;11.83;;;;;;;;;;4452535;32;20224;-85
2022/10/21 01:27:36;;;;;;;16.87;12.03;;;;;;;;;;4455455;32;20719;-85
2022/10/21 01:30:14;;;;;;;21.47;13.70;;;;;;;;;;4456272;32;20212;-85
2022/10/21 01:33:00;;;;;;;21.63;14.43;;;;;;;;;;4455598;32;20216;-84
2022/10/21 01:35:31;;;;;;;26.07;16.07;;;;;;;;;;4456132;32;20284;-85
2022/10/21 01:38:07;;;;;;;22.63;16.50;;;;;;;;;;4456101;32;20228;-85
2022/10/21 01:40:39;;;;;;;21.77;15.60;;;;;;;;;;4456133;32;20279;-85
2022/10/21 01:43:14;;;;;;;27.67;16.67;;;;;;;;;;4455779;32;20236;-85
2022/10/21 01:45:47;;;;;;;23.73;14.60;;;;;;;;;;4455992;32;20212;-85
2022/10/21 01:48:19;;;;;;;17.90;13.30;;;;;;;;;;4456042;32;20220;-85
2022/10/21 01:50:50;;;;;;;18.70;14.00;;;;;;;;;;4455978;32;20772;-85
2022/10/21 01:53:18;;;;;;;19.23;12.37;;;;;;;;;;4455652;32;20228;-85
2022/10/21 01:55:45;;;;;;;23.97;11.77;;;;;;;;;;4456551;32;20205;-84
2022/10/21 01:58:16;;;;;;;15.67;10.67;;;;;;;;;;4456333;32;20242;-85
2022/10/21 02:00:44;;;;;;;19.90;11.73;;;;;;;;;;4457263;32;20208;-84
2022/10/21 02:03:14;;;;;;;20.07;12.80;;;;;;;;;;4456090;32;20225;-84
2022/10/21 02:05:42;;;;;;;22.20;12.33;;;;;;;;;;4455381;32;20208;-85
2022/10/21 02:08:09;;;;;;;26.00;12.43;;;;;;;;;;4455300;32;20224;-85
2022/10/21 02:10:41;;;;;;;23.37;9.90;;;;;;;;;;4455635;32;20275;-84
2022/10/21 02:13:10;;;;;;;18.00;11.57;;;;;;;;;;4455542;32;20237;-84
2022/10/21 02:15:39;;;;;;;20.13;11.83;;;;;;;;;;4455218;32;20220;-84
2022/10/21 02:18:07;;;;;;;17.47;10.73;;;;;;;;;;4455416;32;20299;-84
2022/10/21 02:20:38;;;;;;;15.10;9.50;;;;;;;;;;4455060;32;20234;-85
2022/10/21 02:23:08;;;;;;;14.17;9.70;;;;;;;;;;4455461;32;20232;-85
2022/10/21 02:25:38;;;;;;;15.80;10.10;;;;;;;;;;4454994;32;20618;-84
2022/10/21 02:28:05;;;;;;;17.20;11.43;;;;;;;;;;4455333;32;20220;-85
2022/10/21 02:30:37;;;;;;;15.47;10.30;;;;;;;;;;4455430;32;20226;-84
2022/10/21 02:33:10;;;;;;;15.07;9.90;;;;;;;;;;4454972;32;20250;-84
2022/10/21 02:35:45;;;;;;;16.07;11.53;;;;;;;;;;4455298;32;20279;-84
2022/10/21 02:38:19;;;;;;;13.33;10.97;;;;;;;;;;4454428;32;20220;-85
2022/10/21 02:40:51;;;;;;;18.13;12.07;;;;;;;;;;4455332;32;20279;-85
2022/10/21 02:43:22;;;;;;;15.03;9.50;;;;;;;;;;4455053;32;20572;-85
2022/10/21 02:45:49;;;;;;;13.90;10.13;;;;;;;;;;4455702;32;20285;-85
2022/10/21 02:48:16;;;;;;;13.17;8.93;;;;;;;;;;4455617;32;20228;-85
2022/10/21 02:50:43;;;;;;;17.63;10.23;;;;;;;;;;4455189;32;20208;-85
2022/10/21 02:53:11;;;;;;;14.70;11.73;;;;;;;;;;4455438;32;20232;-84
2022/10/21 02:55:39;;;;;;;11.50;8.27;;;;;;;;;;4454853;32;20549;-85
2022/10/21 02:58:06;;;;;;;9.27;7.47;;;;;;;;;;4454917;32;20229;-84
2022/10/21 03:00:32;;;;;;;8.33;6.77;;;;;;;;;;4454389;32;20276;-85
2022/10/21 03:02:59;;;;;;;11.23;7.13;;;;;;;;;;4454292;32;20246;-84
2022/10/21 03:05:26;;;;;;;9.90;6.37;;;;;;;;;;4454769;32;20226;-84
2022/10/21 03:07:52;;;;;;;8.43;7.30;;;;;;;;;;4454590;32;20292;-84
2022/10/21 03:10:19;;;;;;;10.07;8.70;;;;;;;;;;4454735;32;20212;-84
2022/10/21 03:12:49;;;;;;;9.93;8.63;;;;;;;;;;4454454;32;20273;-85
2022/10/21 03:15:16;;;;;;;19.73;9.83;;;;;;;;;;4454202;32;20548;-84
2022/10/21 03:17:43;;;;;;;13.97;9.53;;;;;;;;;;4454474;32;20214;-84
2022/10/21 03:20:10;;;;;;;28.60;19.70;;;;;;;;;;4454582;32;20217;-84
2022/10/21 03:22:36;;;;;;;44.23;29.73;;;;;;;;;;4454438;32;20223;-84
2022/10/21 03:25:04;;;;;;;53.00;37.73;;;;;;;;;;4454461;32;20250;-84
2022/10/21 03:27:30;;;;;;;33.87;23.97;;;;;;;;;;4454359;32;20269;-84
2022/10/21 03:29:59;;;;;;;37.67;27.40;;;;;;;;;;4454499;32;20294;-85
2022/10/21 03:32:25;;;;;;;48.53;34.27;;;;;;;;;;4454015;32;20284;-84
2022/10/21 03:34:52;;;;;;;47.93;36.60;;;;;;;;;;4453748;32;20228;-84
2022/10/21 03:37:19;;;;;;;48.37;36.80;;;;;;;;;;4454341;32;20216;-84
2022/10/21 03:39:46;;;;;;;32.67;22.63;;;;;;;;;;4454430;32;20228;-84
2022/10/21 03:42:12;;;;;;;28.60;19.57;;;;;;;;;;4454307;32;20212;-84
2022/10/21 03:44:39;;;;;;;33.23;19.97;;;;;;;;;;4453617;32;20597;-84
2022/10/21 03:47:07;;;;;;;39.97;22.87;;;;;;;;;;4453754;32;20558;-84
2022/10/21 03:49:34;;;;;;;30.43;19.27;;;;;;;;;;4453586;32;20241;-84
2022/10/21 03:52:01;;;;;;;35.80;21.00;;;;;;;;;;4454124;32;20216;-85
2022/10/21 03:54:28;;;;;;;28.07;17.10;;;;;;;;;;4453517;32;20307;-85
2022/10/21 03:56:54;;;;;;;29.27;17.57;;;;;;;;;;4454057;32;20218;-84
2022/10/21 03:59:21;;;;;;;27.67;15.57;;;;;;;;;;4454373;32;20250;-84
2022/10/21 04:01:48;;;;;;;29.40;17.23;;;;;;;;;;4453961;32;20351;-85
2022/10/21 04:04:16;;;;;;;38.13;16.87;;;;;;;;;;4453507;32;20657;-83
2022/10/21 04:06:43;;;;;;;24.67;17.40;;;;;;;;;;4453906;32;20230;-83
2022/10/21 04:09:10;;;;;;;30.60;16.57;;;;;;;;;;4453539;32;20228;-84
2022/10/21 04:11:36;;;;;;;25.73;14.90;;;;;;;;;;4453802;32;20209;-84
2022/10/21 04:14:03;;;;;;;22.87;14.57;;;;;;;;;;4453294;32;20228;-84
2022/10/21 04:16:32;;;;;;;19.13;14.00;;;;;;;;;;4453765;32;20674;-84
2022/10/21 04:18:58;;;;;;;20.53;14.60;;;;;;;;;;4453602;32;20291;-83
2022/10/21 04:21:27;;;;;;;28.60;15.90;;;;;;;;;;4453652;32;20208;-84
2022/10/21 04:23:53;;;;;;;27.07;14.47;;;;;;;;;;4453262;32;20272;-84
2022/10/21 04:26:20;;;;;;;22.63;15.77;;;;;;;;;;4453466;32;20246;-84
2022/10/21 04:28:47;;;;;;;26.43;16.47;;;;;;;;;;4452853;32;20534;-84
2022/10/21 04:31:13;;;;;;;29.47;15.50;;;;;;;;;;4452918;32;20578;-84
2022/10/21 04:33:40;;;;;;;28.07;16.23;;;;;;;;;;4452402;32;20689;-84
2022/10/21 04:36:07;;;;;;;26.93;18.67;;;;;;;;;;4453175;32;20226;-84
2022/10/21 04:38:35;;;;;;;32.50;20.73;;;;;;;;;;4452973;32;20658;-84
2022/10/21 04:41:03;;;;;;;33.73;18.80;;;;;;;;;;4453257;32;20220;-84
2022/10/21 04:43:30;;;;;;;24.03;17.10;;;;;;;;;;4452805;32;20225;-84
2022/10/21 04:45:57;;;;;;;34.77;19.73;;;;;;;;;;4452461;32;20483;-84
2022/10/21 04:48:24;;;;;;;34.70;20.17;;;;;;;;;;4452926;32;20602;-85
2022/10/21 04:50:51;;;;;;;35.13;19.83;;;;;;;;;;4452923;32;20226;-84
2022/10/21 04:53:18;;;;;;;38.80;19.63;;;;;;;;;;4452936;32;20321;-84
2022/10/21 04:55:51;;;;;;;25.00;16.97;;;;;;;;;;4452897;32;20246;-84
2022/10/21 04:58:18;;;;;;;29.40;18.33;;;;;;;;;;4452623;32;20235;-84
2022/10/21 05:00:44;;;;;;;26.40;16.07;;;;;;;;;;4452393;32;20224;-84
2022/10/21 05:03:11;;;;;;;24.80;14.77;;;;;;;;;;4452474;32;20220;-84
2022/10/21 05:05:38;;;;;;;32.53;18.33;;;;;;;;;;4452521;32;20208;-84
2022/10/21 05:08:05;;;;;;;27.47;16.90;;;;;;;;;;4452518;32;20285;-84
2022/10/21 05:10:32;;;;;;;52.13;18.03;;;;;;;;;;4454052;32;20217;-84
2022/10/21 05:13:00;;;;;;;43.37;18.73;;;;;;;;;;4452914;32;20237;-84
2022/10/21 05:15:27;;;;;;;46.03;17.93;;;;;;;;;;4452622;32;20212;-84
2022/10/21 05:17:54;;;;;;;33.00;19.93;;;;;;;;;;4452182;32;20250;-83
2022/10/21 05:20:21;;;;;;;41.40;18.23;;;;;;;;;;4452688;32;20714;-83
2022/10/21 05:22:49;;;;;;;38.13;18.03;;;;;;;;;;4451587;32;20576;-84
2022/10/21 05:25:16;;;;;;;40.13;19.53;;;;;;;;;;4452258;32;20713;-83
2022/10/21 05:27:43;;;;;;;62.77;28.23;;;;;;;;;;4452280;32;20209;-84
2022/10/21 05:30:12;;;;;;;73.73;32.37;;;;;;;;;;4452695;32;20212;-83
2022/10/21 05:32:39;;;;;;;54.03;29.50;;;;;;;;;;4451720;32;20299;-83
2022/10/21 05:35:07;;;;;;;51.73;28.53;;;;;;;;;;4452031;32;20217;-84
2022/10/21 05:37:34;;;;;;;49.53;22.00;;;;;;;;;;4451647;32;20216;-84
2022/10/21 05:40:00;;;;;;;31.40;14.97;;;;;;;;;;4451726;32;20220;-84
2022/10/21 05:42:27;;;;;;;21.83;12.33;;;;;;;;;;4451693;32;20249;-84
2022/10/21 05:44:54;;;;;;;30.60;13.57;;;;;;;;;;4452182;32;20269;-83
2022/10/21 05:47:22;;;;;;;27.23;15.53;;;;;;;;;;4451964;32;20208;-85
2022/10/21 05:49:49;;;;;;;32.83;19.40;;;;;;;;;;4452316;32;20448;-83
2022/10/21 05:52:16;;;;;;;36.47;23.40;;;;;;;;;;4452517;32;20212;-84
2022/10/21 05:54:43;;;;;;;38.17;25.17;;;;;;;;;;4451722;32;20277;-84
2022/10/21 05:57:09;;;;;;;43.00;27.43;;;;;;;;;;4452310;32;20640;-84
2022/10/21 05:59:36;;;;;;;54.17;27.80;;;;;;;;;;4452487;32;20228;-83
2022/10/21 06:02:03;;;;;;;50.57;29.50;;;;;;;;;;4452258;32;20217;-83
2022/10/21 06:04:31;;;;;;;60.13;31.77;;;;;;;;;;4452041;32;20285;-84
2022/10/21 06:06:58;;;;;;;57.67;36.20;;;;;;;;;;4452223;32;20208;-84
2022/10/21 06:09:24;;;;;;;67.47;40.60;;;;;;;;;;4451457;32;20315;-84
2022/10/21 06:11:51;;;;;;;72.57;41.47;;;;;;;;;;4452178;32;20331;-84
2022/10/21 06:14:19;;;;;;;64.37;41.17;;;;;;;;;;4454110;32;20224;-83
2022/10/21 06:16:46;;;;;;;64.77;37.63;;;;;;;;;;4454818;32;20213;-84
2022/10/21 06:19:12;;;;;;;57.00;34.40;;;;;;;;;;4454400;32;20227;-84
2022/10/21 06:21:40;;;;;;;47.87;30.37;;;;;;;;;;4455198;32;20292;-84
2022/10/21 06:24:07;;;;;;;55.07;32.47;;;;;;;;;;4454114;32;20273;-85
2022/10/21 06:26:34;;;;;;;55.20;29.43;;;;;;;;;;4454879;32;20224;-83
2022/10/21 06:29:01;;;;;;;51.77;30.40;;;;;;;;;;4454256;32;20627;-84
2022/10/21 06:31:27;;;;;;;53.13;29.80;;;;;;;;;;4454800;32;20212;-84
2022/10/21 06:33:54;;;;;;;52.23;30.53;;;;;;;;;;4454147;32;20228;-84
2022/10/21 06:36:21;;;;;;;46.27;30.83;;;;;;;;;;4454656;32;20216;-84
2022/10/21 06:38:49;;;;;;;51.97;27.67;;;;;;;;;;4454249;32;20229;-84
2022/10/21 06:41:16;;;;;;;34.77;24.33;;;;;;;;;;4454204;32;20597;-84
2022/10/21 06:43:43;;;;;;;39.07;20.23;;;;;;;;;;4455120;32;20247;-84
2022/10/21 06:46:13;;;;;;;32.80;22.20;;;;;;;;;;4454382;32;20216;-85
2022/10/21 06:48:40;;;;;;;31.00;20.47;;;;;;;;;;4453518;32;20321;-83
2022/10/21 06:51:08;;;;;;;35.43;21.37;;;;;;;;;;4454231;32;20612;-83
2022/10/21 06:53:36;;;;;;;32.67;20.10;;;;;;;;;;4453624;32;20679;-83
2022/10/21 06:56:06;;;;;;;32.87;19.77;;;;;;;;;;4454207;32;20204;-84
2022/10/21 06:58:34;;;;;;;33.57;20.33;;;;;;;;;;4454154;32;20258;-84
2022/10/21 07:01:07;;;;;;;28.83;19.83;;;;;;;;;;4456737;32;20205;-85
2022/10/21 07:03:33;;;;;;;32.27;19.33;;;;;;;;;;4457619;32;20234;-84
2022/10/21 07:06:00;;;;;;;38.17;20.23;;;;;;;;;;4454038;32;20295;-84
2022/10/21 07:08:28;;;;;;;33.47;18.73;;;;;;;;;;4453271;32;20308;-84
2022/10/21 07:10:55;;;;;;;35.40;17.40;;;;;;;;;;4452868;32;20249;-85
2022/10/21 07:13:23;;;;;;;28.30;16.23;;;;;;;;;;4453170;32;20305;-84
2022/10/21 07:15:58;;;;;;;27.50;16.43;;;;;;;;;;4453299;32;20306;-84
2022/10/21 07:18:24;;;;;;;24.03;14.57;;;;;;;;;;4453303;32;20272;-84
2022/10/21 07:20:51;;;;;;;19.80;13.30;;;;;;;;;;4453744;32;20705;-84
2022/10/21 07:23:18;;;;;;;19.03;13.63;;;;;;;;;;4453405;32;20225;-84
2022/10/21 07:25:45;;;;;;;19.60;12.10;;;;;;;;;;4453456;32;20222;-84
2022/10/21 07:28:12;;;;;;;16.80;12.33;;;;;;;;;;4453106;32;20669;-84
2022/10/21 07:30:41;;;;;;;15.53;11.13;;;;;;;;;;4453052;32;20272;-84
2022/10/21 07:33:08;;;;;;;17.03;11.70;;;;;;;;;;4452547;32;20228;-84
2022/10/21 07:35:35;;;;;;;15.13;10.60;;;;;;;;;;4453277;32;20216;-84
2022/10/21 07:38:02;;;;;;;19.60;11.63;;;;;;;;;;4453069;32;20277;-84
2022/10/21 07:40:29;;;;;;;12.97;9.33;;;;;;;;;;4453288;32;20533;-84
2022/10/21 07:42:56;;;;;;;18.97;10.60;;;;;;;;;;4453030;32;20662;-84
2022/10/21 07:45:23;;;;;;;21.53;10.07;;;;;;;;;;4453210;32;20573;-84
2022/10/21 07:47:51;;;;;;;12.13;9.60;;;;;;;;;;4452989;32;20277;-84
2022/10/21 07:50:17;;;;;;;31.90;12.23;;;;;;;;;;4453302;32;20213;-84
2022/10/21 07:52:45;;;;;;;16.10;9.80;;;;;;;;;;4453115;32;20208;-84
2022/10/21 07:55:12;;;;;;;16.17;11.50;;;;;;;;;;4452873;32;20227;-84
2022/10/21 07:57:39;;;;;;;14.97;11.00;;;;;;;;;;4452816;32;20208;-84
2022/10/21 08:00:08;;;;;;;18.80;11.50;;;;;;;;;;4452983;32;20208;-84
2022/10/21 08:02:35;;;;;;;16.37;11.47;;;;;;;;;;4452649;32;20638;-84
2022/10/21 08:05:04;;;;;;;16.57;10.27;;;;;;;;;;4453878;32;20216;-84
2022/10/21 08:07:31;;;;;;;12.33;9.37;;;;;;;;;;4453099;32;20768;-84
2022/10/21 08:10:00;;;;;;;19.93;10.07;;;;;;;;;;4452811;32;20324;-84
2022/10/21 08:12:27;;;;;;;12.03;9.50;;;;;;;;;;4452710;32;20225;-84
2022/10/21 08:14:54;;;;;;;13.30;8.93;;;;;;;;;;4452642;32;20582;-84
2022/10/21 08:17:21;;;;;;;11.03;8.20;;;;;;;;;;4452507;32;20746;-84
2022/10/21 08:19:47;;;;;;;12.57;7.50;;;;;;;;;;4452240;32;20579;-84
2022/10/21 08:22:15;;;;;;;12.07;8.70;;;;;;;;;;4453779;32;20257;-85
2022/10/21 08:24:42;;;;;;;12.67;8.50;;;;;;;;;;4453827;32;20220;-85
2022/10/21 08:27:09;;;;;;;18.63;9.27;;;;;;;;;;4452879;32;20257;-84
2022/10/21 08:29:36;;;;;;;23.63;8.07;;;;;;;;;;4452168;32;20286;-84
2022/10/21 08:32:03;;;;;;;17.50;9.13;;;;;;;;;;4451816;32;20357;-84
2022/10/21 08:34:30;;;;;;;18.67;9.07;;;;;;;;;;4452333;32;20228;-84
2022/10/21 08:36:57;;;;;;;11.70;9.20;;;;;;;;;;4451488;32;20277;-84
2022/10/21 08:39:25;;;;;;;18.70;9.33;;;;;;;;;;4451813;32;20228;-84
2022/10/21 08:42:07;;;;;;;13.07;8.43;;;;;;;;;;4451477;32;20252;-84
2022/10/21 08:44:44;;;;;;;18.13;8.90;;;;;;;;;;4451926;32;20649;-84
2022/10/21 08:47:20;;;;;;;12.20;8.30;;;;;;;;;;4452354;32;20283;-85
2022/10/21 08:49:55;;;;;;;21.10;8.80;;;;;;;;;;4452009;32;20328;-85
2022/10/21 08:52:27;;;;;;;17.33;7.67;;;;;;;;;;4452516;32;20216;-84
2022/10/21 08:54:59;;;;;;;15.10;7.43;;;;;;;;;;4452468;32;20303;-84
2022/10/21 08:57:26;;;;;;;13.33;7.07;;;;;;;;;;4452664;32;20245;-83
2022/10/21 08:59:55;;;;;;;22.23;8.83;;;;;;;;;;4451680;32;20246;-84
2022/10/21 09:02:34;;;;;;;19.40;7.47;;;;;;;;;;4451656;32;20633;-85
2022/10/21 09:05:32;;;;;;;11.87;7.83;;;;;;;;;;4452145;32;20662;-84
2022/10/21 09:08:13;;;;;;;16.53;7.80;;;;;;;;;;4452115;32;20224;-85
2022/10/21 09:11:00;;;;;;;13.73;7.67;;;;;;;;;;4452281;32;20620;-85
2022/10/21 09:13:45;;;;;;;25.33;8.00;;;;;;;;;;4451412;32;20228;-85
2022/10/21 09:16:18;;;;;;;24.67;7.83;;;;;;;;;;4451791;32;20212;-85
2022/10/21 09:18:58;;;;;;;13.90;7.33;;;;;;;;;;4452205;32;20220;-84
2022/10/21 09:21:35;;;;;;;20.50;7.10;;;;;;;;;;4452008;32;20212;-85
2022/10/21 09:24:07;;;;;;;16.10;7.03;;;;;;;;;;4451746;32;20224;-85
2022/10/21 09:26:40;;;;;;;17.83;8.73;;;;;;;;;;4452274;32;20711;-85
2022/10/21 09:29:25;;;;;;;14.47;6.47;;;;;;;;;;4451929;32;20570;-85
2022/10/21 09:31:53;;;;;;;13.17;6.20;;;;;;;;;;4451749;32;20265;-85
2022/10/21 09:34:27;;;;;;;8.63;6.10;;;;;;;;;;4451183;32;20216;-85
2022/10/21 09:36:55;;;;;;;24.27;6.43;;;;;;;;;;4451801;32;20268;-85
2022/10/21 09:39:37;;;;;;;10.00;6.47;;;;;;;;;;4451155;32;20595;-85
2022/10/21 09:42:06;;;;;;;21.27;7.17;;;;;;;;;;4452023;32;20209;-85
2022/10/21 09:44:33;;;;;;;10.37;6.50;;;;;;;;;;4451599;32;20285;-85
2022/10/21 09:46:59;;;;;;;17.17;5.97;;;;;;;;;;4452967;32;20654;-85
2022/10/21 09:49:29;;;;;;;16.77;6.23;;;;;;;;;;4454486;32;20269;-86
2022/10/21 09:52:00;;;;;;;23.30;7.00;;;;;;;;;;4454682;32;20265;-86
2022/10/21 09:54:32;;;;;;;16.23;8.40;;;;;;;;;;4454540;32;20277;-85
2022/10/21 09:57:03;;;;;;;12.90;6.83;;;;;;;;;;4455047;32;20286;-85
2022/10/21 09:59:32;;;;;;;12.83;6.80;;;;;;;;;;4454499;32;20269;-85
2022/10/21 10:02:06;;;;;;;12.53;6.53;;;;;;;;;;4454713;32;20549;-86
2022/10/21 10:04:34;;;;;;;14.33;6.43;;;;;;;;;;4456574;32;20278;-85
2022/10/21 10:07:19;;;;;;;10.87;6.83;;;;;;;;;;4454703;32;20651;-86
2022/10/21 10:09:47;;;;;;;15.33;5.47;;;;;;;;;;4454491;32;20220;-85
2022/10/21 10:12:15;;;;;;;10.50;5.77;;;;;;;;;;4454943;32;20212;-86
2022/10/21 10:14:45;;;;;;;15.23;5.80;;;;;;;;;;4454226;32;20318;-85
2022/10/21 10:17:24;;;;;;;11.97;6.63;;;;;;;;;;4453978;32;20335;-85
2022/10/21 10:20:24;;;;;;;13.17;6.30;;;;;;;;;;4454145;32;20236;-85
2022/10/21 10:23:17;;;;;;;11.40;6.63;;;;;;;;;;4454620;32;20228;-85
2022/10/21 10:25:50;;;;;;;17.80;10.73;;;;;;;;;;4454656;32;20263;-85
2022/10/21 10:28:20;;;;;;;11.20;6.47;;;;;;;;;;4454326;32;20216;-85
2022/10/21 10:30:52;;;;;;;9.32;6.15;;;;;;;;;;4454738;32;20241;-85
2022/10/21 10:33:22;;;;;;;14.40;6.30;;;;;;;;;;4454587;32;20289;-85
2022/10/21 10:35:51;;;;;;;8.80;5.83;;;;;;;;;;4454890;32;20249;-86
2022/10/21 10:38:24;;;;;;;14.30;7.30;;;;;;;;;;4454045;32;20236;-85
2022/10/21 10:40:52;;;;;;;13.02;6.60;;;;;;;;;;4455023;32;20637;-85
2022/10/21 10:43:24;;;;;;;11.05;5.37;;;;;;;;;;4454194;32;20292;-86
2022/10/21 10:45:56;;;;;;;14.87;6.05;;;;;;;;;;4454889;32;20254;-86
2022/10/21 10:48:26;;;;;;;15.35;6.43;;;;;;;;;;4454512;32;20351;-86
2022/10/21 10:50:53;;;;;;;21.92;6.28;;;;;;;;;;4454984;32;20319;-86
2022/10/21 10:53:27;;;;;;;8.20;5.57;;;;;;;;;;4454195;32;20284;-86
2022/10/21 10:56:02;;;;;;;11.10;6.07;;;;;;;;;;4454460;32;20220;-86
2022/10/21 10:58:32;;;;;;;9.83;6.07;;;;;;;;;;4453430;32;20224;-86
2022/10/21 11:01:05;;;;;;;9.00;5.28;;;;;;;;;;4454676;32;20208;-87
2022/10/21 11:03:38;;;;;;;10.55;5.55;;;;;;;;;;4454236;32;20276;-87
2022/10/21 11:06:13;;;;;;;15.10;5.78;;;;;;;;;;4454664;32;20621;-86
2022/10/21 11:08:43;;;;;;;12.50;5.70;;;;;;;;;;4441002;32;20227;-86
2022/10/21 11:11:15;;;;;;;13.68;5.55;;;;;;;;;;4454643;32;20261;-86
2022/10/21 11:13:42;;;;;;;8.45;4.57;;;;;;;;;;4453849;32;20633;-87
2022/10/21 11:16:36;;;;;;;11.45;5.07;;;;;;;;;;4454102;32;20273;-86
2022/10/21 11:19:12;;;;;;;12.05;4.43;;;;;;;;;;4454167;32;20296;-87
2022/10/21 11:21:48;;;;;;;12.30;4.90;;;;;;;;;;4454784;32;20212;-87
2022/10/21 11:24:28;;;;;;;8.75;4.95;;;;;;;;;;4455637;32;20220;-87
2022/10/21 11:26:59;;;;;;;17.33;4.60;;;;;;;;;;4456102;32;20617;-87
2022/10/21 11:29:36;;;;;;;13.35;4.85;;;;;;;;;;4453944;32;20685;-87
2022/10/21 11:32:14;;;;;;;12.35;5.60;;;;;;;;;;4454012;32;20760;-87
2022/10/21 11:34:51;;;;;;;20.33;5.68;;;;;;;;;;4453698;32;20227;-87
2022/10/21 11:37:25;;;;;;;8.10;4.85;;;;;;;;;;4453746;32;20526;-87
2022/10/21 11:39:59;;;;;;;10.75;5.18;;;;;;;;;;4453869;32;20228;-87
2022/10/21 11:42:32;;;;;;;8.27;5.07;;;;;;;;;;4454326;32;20269;-87
2022/10/21 11:45:39;;;;;;;10.50;5.43;;;;;;;;;;4454396;32;20213;-86
2022/10/21 11:48:19;;;;;;;9.50;5.65;;;;;;;;;;4445771;32;20315;-88
2022/10/21 11:50:54;;;;;;;11.30;5.53;;;;;;;;;;4454205;32;20264;-87
2022/10/21 11:53:36;;;;;;;7.85;4.20;;;;;;;;;;4453454;32;20265;-87
2022/10/21 11:56:17;;;;;;;19.70;5.35;;;;;;;;;;4454076;32;20316;-86
2022/10/21 11:58:56;;;;;;;13.02;5.12;;;;;;;;;;4453447;32;20272;-87
2022/10/21 12:01:33;;;;;;;9.63;5.75;;;;;;;;;;4453874;32;20320;-87
2022/10/21 12:04:24;;;;;;;10.77;4.80;;;;;;;;;;4453493;32;20224;-87
2022/10/21 12:07:02;;;;;;;11.32;4.40;;;;;;;;;;4453896;32;20626;-86
2022/10/21 12:09:34;;;;;;;9.75;5.37;;;;;;;;;;4453340;32;20676;-87
2022/10/21 12:12:04;;;;;;;8.82;4.72;;;;;;;;;;4453049;32;20204;-88
2022/10/21 12:14:36;;;;;;;19.50;6.60;;;;;;;;;;4453361;32;20213;-85
2022/10/21 12:17:07;;;;;;;9.43;5.70;;;;;;;;;;4453737;32;20733;-87
2022/10/21 12:19:36;;;;;;;14.02;4.80;;;;;;;;;;4453039;32;20220;-86
2022/10/21 12:22:04;;;;;;;13.10;5.82;;;;;;;;;;4453479;32;20313;-86
2022/10/21 12:24:43;;;;;;;11.45;5.28;;;;;;;;;;4452962;32;20225;-88
2022/10/21 12:27:18;;;;;;;9.40;5.65;;;;;;;;;;4453541;32;20204;-88
2022/10/21 12:29:54;;;;;;;6.50;5.32;;;;;;;;;;4453399;32;20577;-86
2022/10/21 12:32:28;;;;;;;14.98;5.80;;;;;;;;;;4452989;32;20247;-87
2022/10/21 12:34:57;;;;;;;16.85;5.72;;;;;;;;;;4453268;32;20207;-87
2022/10/21 12:37:57;;;;;;;11.85;5.82;;;;;;;;;;4453260;32;20290;-87
2022/10/21 12:40:39;;;;;;;11.60;6.50;;;;;;;;;;4453020;32;20279;-87
2022/10/21 12:43:15;;;;;;;9.35;5.45;;;;;;;;;;4452794;32;20238;-87
2022/10/21 12:45:42;;;;;;;14.48;6.15;;;;;;;;;;4453367;32;20220;-87
2022/10/21 12:48:28;;;;;;;17.00;6.00;;;;;;;;;;4452370;32;20224;-87
2022/10/21 12:51:01;;;;;;;15.38;6.07;;;;;;;;;;4453339;32;20209;-87
2022/10/21 12:53:37;;;;;;;23.52;6.50;;;;;;;;;;4452692;32;20649;-87
2022/10/21 12:56:05;;;;;;;9.30;5.50;;;;;;;;;;4453082;32;20263;-87
2022/10/21 12:58:38;;;;;;;16.67;6.03;;;;;;;;;;4452810;32;20277;-86
2022/10/21 13:01:41;;;;;;;12.57;5.75;;;;;;;;;;4452724;32;20603;-87
2022/10/21 13:04:45;;;;;;;8.27;5.70;;;;;;;;;;4452763;32;20657;-86
2022/10/21 13:07:37;;;;;;;7.70;5.60;;;;;;;;;;4453390;32;20673;-86
2022/10/21 13:10:33;;;;;;;9.82;5.22;;;;;;;;;;4431022;32;20295;-86
2022/10/21 13:13:34;;;;;;;17.67;6.47;;;;;;;;;;4452757;32;20229;-87
2022/10/21 13:16:17;;;;;;;15.18;5.62;;;;;;;;;;4404884;32;20683;-87
2022/10/21 13:18:59;;;;;;;8.32;5.30;;;;;;;;;;4447384;32;20785;-86
2022/10/21 13:21:41;;;;;;;8.18;5.00;;;;;;;;;;4452566;32;20265;-87
2022/10/21 13:24:21;;;;;;;13.55;6.28;;;;;;;;;;4450611;32;20241;-86
2022/10/21 13:26:50;;;;;;;8.48;5.30;;;;;;;;;;4453009;32;20216;-87
2022/10/21 13:29:43;;;;;;;12.23;6.65;;;;;;;;;;4452407;32;20239;-87
2022/10/21 13:32:24;;;;;;;14.00;5.65;;;;;;;;;;4447448;32;20749;-87
2022/10/21 13:35:18;;;;;;;18.45;5.90;;;;;;;;;;4452355;32;20224;-87
2022/10/21 13:37:56;;;;;;;14.07;6.07;;;;;;;;;;4445880;32;20255;-87
2022/10/21 13:40:30;;;;;;;14.65;6.87;;;;;;;;;;4453194;32;20327;-87
2022/10/21 13:42:59;;;;;;;10.00;5.53;;;;;;;;;;4452742;32;20297;-87
2022/10/21 13:45:30;;;;;;;11.73;6.05;;;;;;;;;;4452503;32;20212;-87
2022/10/21 13:48:03;;;;;;;12.13;5.85;;;;;;;;;;4452323;32;20631;-87
2022/10/21 13:50:37;;;;;;;11.73;5.93;;;;;;;;;;4452148;32;20653;-87
2022/10/21 13:53:21;;;;;;;11.65;6.22;;;;;;;;;;4452632;32;20724;-87
2022/10/21 13:55:55;;;;;;;13.98;6.15;;;;;;;;;;4452953;32;20216;-87
2022/10/21 13:58:23;;;;;;;10.88;6.32;;;;;;;;;;4452492;32;20242;-88
2022/10/21 14:00:50;;;;;;;13.38;6.07;;;;;;;;;;4452785;32;20209;-87
2022/10/21 14:03:19;;;;;;;10.07;6.70;;;;;;;;;;4452737;32;20273;-87
2022/10/21 14:05:51;;;;;;;13.18;7.12;;;;;;;;;;4452208;32;20231;-87
2022/10/21 14:08:28;;;;;;;12.52;6.03;;;;;;;;;;4452667;32;20243;-87
2022/10/21 14:10:58;;;;;;;12.63;6.90;;;;;;;;;;4454069;32;20212;-87
2022/10/21 14:13:28;;;;;;;9.63;6.03;;;;;;;;;;4453801;32;20232;-87
2022/10/21 14:15:56;;;;;;;13.90;5.87;;;;;;;;;;4452074;32;20235;-87
2022/10/21 14:18:31;;;;;;;16.12;6.22;;;;;;;;;;4452272;32;20289;-88
2022/10/21 14:21:01;;;;;;;11.25;7.22;;;;;;;;;;4452076;32;20205;-88
2022/10/21 14:23:29;;;;;;;15.15;8.05;;;;;;;;;;4452219;32;20602;-88
2022/10/21 14:26:03;;;;;;;16.05;9.43;;;;;;;;;;4452163;32;20261;-88
2022/10/21 14:28:31;;;;;;;16.00;8.88;;;;;;;;;;4452299;32;20649;-88
2022/10/21 14:31:00;;;;;;;9.73;7.72;;;;;;;;;;4452555;32;20316;-88
2022/10/21 14:33:29;;;;;;;15.75;8.63;;;;;;;;;;4452133;32;20228;-88
2022/10/21 14:36:11;;;;;;;31.45;9.98;;;;;;;;;;4455416;32;20217;-87
2022/10/21 14:38:43;;;;;;;18.45;10.85;;;;;;;;;;4455072;32;20743;-87
2022/10/21 14:41:16;;;;;;;23.58;11.45;;;;;;;;;;4455405;32;20253;-88
2022/10/21 14:43:44;;;;;;;22.48;10.43;;;;;;;;;;4454818;32;20288;-88
2022/10/21 14:46:11;;;;;;;30.08;11.12;;;;;;;;;;4455153;32;20214;-88
2022/10/21 14:48:43;;;;;;;19.20;10.77;;;;;;;;;;4454743;32;20224;-87